sensor_id;sensor_type;location;lat;lon;timestamp;P1;durP1;ratioP1;P2;durP2;ratioP2
60054;SDS011;45930;53.514;55.904;2022-12-20T00:00:41;10.57;;;5.93;;
60054;SDS011;45930;53.514;55.904;2022-12-20T00:01:42;10.95;;;5.45;;
60054;SDS011;45930;53.514;55.904;2022-12-20T00:02:43;10.00;;;5.05;;
60054;SDS011;45930;53.514;55.904;2022-12-20T00:03:44;10.00;;;6.77;;
60054;SDS011;45930;53.514;55.904;2022-12-20T00:04:45;10.50;;;6.27;;
60054;SDS011;45930;53.514;55.904;2022-12-20T00:05:46;9.07;;;6.30;;
60054;SDS011;45930;53.514;55.904;2022-12-20T00:06:48;9.52;;;5.13;;
60054;SDS011;45930;53.514;55.904;2022-12-20T00:07:49;12.80;;;6.28;;
60054;SDS011;45930;53.514;55.904;2022-12-20T00:08:57;11.20;;;5.50;;
60054;SDS011;45930;53.514;55.904;2022-12-20T00:09:59;12.70;;;5.70;;
60054;SDS011;45930;53.514;55.904;2022-12-20T00:11:01;12.07;;;5.63;;
60054;SDS011;45930;53.514;55.904;2022-12-20T00:12:03;11.77;;;5.28;;
60054;SDS011;45930;53.514;55.904;2022-12-20T00:13:04;13.93;;;6.17;;
60054;SDS011;45930;53.514;55.904;2022-12-20T00:14:05;11.32;;;5.53;;
60054;SDS011;45930;53.514;55.904;2022-12-20T00:15:07;11.40;;;5.45;;
60054;SDS011;45930;53.514;55.904;2022-12-20T00:16:09;12.63;;;5.57;;
60054;SDS011;45930;53.514;55.904;2022-12-20T00:17:11;10.43;;;4.95;;
60054;SDS011;45930;53.514;55.904;2022-12-20T00:18:12;9.07;;;4.87;;
60054;SDS011;45930;53.514;55.904;2022-12-20T00:19:13;11.23;;;5.63;;
60054;SDS011;45930;53.514;55.904;2022-12-20T00:20:13;7.67;;;4.60;;
60054;SDS011;45930;53.514;55.904;2022-12-20T00:21:15;13.70;;;6.50;;
60054;SDS011;45930;53.514;55.904;2022-12-20T00:22:15;10.05;;;6.15;;
60054;SDS011;45930;53.514;55.904;2022-12-20T00:23:16;10.50;;;6.33;;
60054;SDS011;45930;53.514;55.904;2022-12-20T00:24:17;10.23;;;5.43;;
60054;SDS011;45930;53.514;55.904;2022-12-20T00:25:18;10.27;;;6.20;;
60054;SDS011;45930;53.514;55.904;2022-12-20T00:26:21;9.40;;;5.95;;
60054;SDS011;45930;53.514;55.904;2022-12-20T00:27:28;8.95;;;5.15;;
60054;SDS011;45930;53.514;55.904;2022-12-20T00:28:29;9.30;;;4.90;;
60054;SDS011;45930;53.514;55.904;2022-12-20T00:29:30;9.68;;;5.40;;
60054;SDS011;45930;53.514;55.904;2022-12-20T00:30:31;10.10;;;4.73;;
60054;SDS011;45930;53.514;55.904;2022-12-20T00:31:32;11.70;;;5.27;;
60054;SDS011;45930;53.514;55.904;2022-12-20T00:32:33;9.77;;;5.75;;
60054;SDS011;45930;53.514;55.904;2022-12-20T00:33:34;11.00;;;6.17;;
60054;SDS011;45930;53.514;55.904;2022-12-20T00:34:37;11.80;;;5.63;;
60054;SDS011;45930;53.514;55.904;2022-12-20T00:35:40;10.20;;;5.33;;
60054;SDS011;45930;53.514;55.904;2022-12-20T00:36:42;10.00;;;5.63;;
60054;SDS011;45930;53.514;55.904;2022-12-20T00:37:43;9.17;;;5.00;;
60054;SDS011;45930;53.514;55.904;2022-12-20T00:38:44;9.83;;;5.60;;
60054;SDS011;45930;53.514;55.904;2022-12-20T00:39:46;8.75;;;5.88;;
60054;SDS011;45930;53.514;55.904;2022-12-20T00:40:47;11.20;;;6.27;;
60054;SDS011;45930;53.514;55.904;2022-12-20T00:41:47;9.03;;;5.63;;
60054;SDS011;45930;53.514;55.904;2022-12-20T00:42:48;10.10;;;5.47;;
60054;SDS011;45930;53.514;55.904;2022-12-20T00:43:49;10.53;;;5.27;;
60054;SDS011;45930;53.514;55.904;2022-12-20T00:44:50;12.48;;;5.82;;
60054;SDS011;45930;53.514;55.904;2022-12-20T00:45:51;9.57;;;5.40;;
60054;SDS011;45930;53.514;55.904;2022-12-20T00:46:51;10.97;;;5.70;;
60054;SDS011;45930;53.514;55.904;2022-12-20T00:47:52;9.67;;;6.00;;
60054;SDS011;45930;53.514;55.904;2022-12-20T00:48:53;10.80;;;5.27;;
60054;SDS011;45930;53.514;55.904;2022-12-20T00:49:54;9.90;;;5.75;;
60054;SDS011;45930;53.514;55.904;2022-12-20T00:50:59;10.53;;;5.60;;
60054;SDS011;45930;53.514;55.904;2022-12-20T00:52:02;7.82;;;5.00;;
60054;SDS011;45930;53.514;55.904;2022-12-20T00:53:03;9.27;;;5.57;;
60054;SDS011;45930;53.514;55.904;2022-12-20T00:54:03;7.40;;;5.60;;
60054;SDS011;45930;53.514;55.904;2022-12-20T00:55:04;11.40;;;5.73;;
60054;SDS011;45930;53.514;55.904;2022-12-20T00:56:05;9.63;;;5.73;;
60054;SDS011;45930;53.514;55.904;2022-12-20T00:57:07;13.65;;;6.43;;
60054;SDS011;45930;53.514;55.904;2022-12-20T00:58:08;9.67;;;5.43;;
60054;SDS011;45930;53.514;55.904;2022-12-20T00:59:08;8.73;;;5.45;;
60054;SDS011;45930;53.514;55.904;2022-12-20T01:00:09;12.00;;;4.93;;
60054;SDS011;45930;53.514;55.904;2022-12-20T01:01:24;9.38;;;4.47;;
60054;SDS011;45930;53.514;55.904;2022-12-20T01:02:26;8.95;;;5.45;;
60054;SDS011;45930;53.514;55.904;2022-12-20T01:03:27;9.33;;;5.20;;
60054;SDS011;45930;53.514;55.904;2022-12-20T01:04:28;10.43;;;6.17;;
60054;SDS011;45930;53.514;55.904;2022-12-20T01:05:29;7.73;;;5.17;;
60054;SDS011;45930;53.514;55.904;2022-12-20T01:06:30;8.27;;;5.17;;
60054;SDS011;45930;53.514;55.904;2022-12-20T01:07:31;12.70;;;6.15;;
60054;SDS011;45930;53.514;55.904;2022-12-20T01:08:32;8.98;;;5.53;;
60054;SDS011;45930;53.514;55.904;2022-12-20T01:09:33;10.53;;;5.73;;
60054;SDS011;45930;53.514;55.904;2022-12-20T01:10:34;11.47;;;5.23;;
60054;SDS011;45930;53.514;55.904;2022-12-20T01:11:35;9.77;;;5.37;;
60054;SDS011;45930;53.514;55.904;2022-12-20T01:12:36;8.80;;;5.55;;
60054;SDS011;45930;53.514;55.904;2022-12-20T01:13:38;8.50;;;5.70;;
60054;SDS011;45930;53.514;55.904;2022-12-20T01:14:40;10.10;;;5.50;;
60054;SDS011;45930;53.514;55.904;2022-12-20T01:15:41;10.47;;;5.43;;
60054;SDS011;45930;53.514;55.904;2022-12-20T01:16:45;8.97;;;5.57;;
60054;SDS011;45930;53.514;55.904;2022-12-20T01:17:46;11.10;;;6.20;;
60054;SDS011;45930;53.514;55.904;2022-12-20T01:18:48;12.60;;;5.37;;
60054;SDS011;45930;53.514;55.904;2022-12-20T01:19:49;11.98;;;5.85;;
60054;SDS011;45930;53.514;55.904;2022-12-20T01:20:58;16.17;;;8.17;;
60054;SDS011;45930;53.514;55.904;2022-12-20T01:22:00;14.73;;;8.85;;
60054;SDS011;45930;53.514;55.904;2022-12-20T01:23:01;10.33;;;5.97;;
60054;SDS011;45930;53.514;55.904;2022-12-20T01:24:02;8.33;;;5.67;;
60054;SDS011;45930;53.514;55.904;2022-12-20T01:25:03;9.13;;;5.43;;
60054;SDS011;45930;53.514;55.904;2022-12-20T01:26:06;13.20;;;5.47;;
60054;SDS011;45930;53.514;55.904;2022-12-20T01:27:11;10.25;;;5.60;;
60054;SDS011;45930;53.514;55.904;2022-12-20T01:28:12;9.97;;;5.67;;
60054;SDS011;45930;53.514;55.904;2022-12-20T01:29:13;11.87;;;5.53;;
60054;SDS011;45930;53.514;55.904;2022-12-20T01:30:14;10.95;;;6.25;;
60054;SDS011;45930;53.514;55.904;2022-12-20T01:31:16;10.50;;;5.17;;
60054;SDS011;45930;53.514;55.904;2022-12-20T01:32:18;10.93;;;6.38;;
60054;SDS011;45930;53.514;55.904;2022-12-20T01:33:18;10.40;;;5.57;;
60054;SDS011;45930;53.514;55.904;2022-12-20T01:34:19;10.23;;;5.83;;
60054;SDS011;45930;53.514;55.904;2022-12-20T01:35:20;8.37;;;4.87;;
60054;SDS011;45930;53.514;55.904;2022-12-20T01:36:22;10.88;;;5.68;;
60054;SDS011;45930;53.514;55.904;2022-12-20T01:37:25;8.50;;;5.18;;
60054;SDS011;45930;53.514;55.904;2022-12-20T01:38:26;8.73;;;5.17;;
60054;SDS011;45930;53.514;55.904;2022-12-20T01:39:27;12.27;;;6.10;;
60054;SDS011;45930;53.514;55.904;2022-12-20T01:40:28;9.67;;;5.43;;
60054;SDS011;45930;53.514;55.904;2022-12-20T01:41:29;12.20;;;6.13;;
60054;SDS011;45930;53.514;55.904;2022-12-20T01:42:32;9.25;;;5.25;;
60054;SDS011;45930;53.514;55.904;2022-12-20T01:44:56;8.57;;;4.85;;
60054;SDS011;45930;53.514;55.904;2022-12-20T01:45:58;16.00;;;6.22;;
60054;SDS011;45930;53.514;55.904;2022-12-20T01:46:59;9.37;;;5.70;;
60054;SDS011;45930;53.514;55.904;2022-12-20T01:48:00;9.30;;;4.87;;
60054;SDS011;45930;53.514;55.904;2022-12-20T01:50:16;8.73;;;5.50;;
60054;SDS011;45930;53.514;55.904;2022-12-20T01:51:17;9.17;;;5.53;;
60054;SDS011;45930;53.514;55.904;2022-12-20T01:52:34;9.60;;;4.85;;
60054;SDS011;45930;53.514;55.904;2022-12-20T01:53:40;9.10;;;5.07;;
60054;SDS011;45930;53.514;55.904;2022-12-20T01:56:04;7.45;;;5.10;;
60054;SDS011;45930;53.514;55.904;2022-12-20T01:57:08;8.57;;;5.05;;
60054;SDS011;45930;53.514;55.904;2022-12-20T01:58:13;9.40;;;5.30;;
60054;SDS011;45930;53.514;55.904;2022-12-20T01:59:17;12.25;;;5.88;;
60054;SDS011;45930;53.514;55.904;2022-12-20T02:00:19;9.25;;;4.80;;
60054;SDS011;45930;53.514;55.904;2022-12-20T02:01:21;9.93;;;4.95;;
60054;SDS011;45930;53.514;55.904;2022-12-20T02:02:23;10.68;;;5.38;;
60054;SDS011;45930;53.514;55.904;2022-12-20T02:03:25;10.60;;;5.03;;
60054;SDS011;45930;53.514;55.904;2022-12-20T02:04:27;7.88;;;4.45;;
60054;SDS011;45930;53.514;55.904;2022-12-20T02:05:32;9.10;;;5.60;;
60054;SDS011;45930;53.514;55.904;2022-12-20T02:06:35;10.45;;;5.32;;
60054;SDS011;45930;53.514;55.904;2022-12-20T02:07:36;7.60;;;5.18;;
60054;SDS011;45930;53.514;55.904;2022-12-20T02:08:38;12.40;;;5.97;;
60054;SDS011;45930;53.514;55.904;2022-12-20T02:09:38;13.03;;;5.20;;
60054;SDS011;45930;53.514;55.904;2022-12-20T02:12:18;10.63;;;5.97;;
60054;SDS011;45930;53.514;55.904;2022-12-20T02:18:52;14.13;;;6.78;;
60054;SDS011;45930;53.514;55.904;2022-12-20T02:30:31;10.30;;;6.13;;
60054;SDS011;45930;53.514;55.904;2022-12-20T02:31:21;13.02;;;6.72;;
60054;SDS011;45930;53.514;55.904;2022-12-20T02:32:30;12.68;;;7.05;;
60054;SDS011;45930;53.514;55.904;2022-12-20T02:33:38;10.90;;;6.30;;
60054;SDS011;45930;53.514;55.904;2022-12-20T02:34:42;10.27;;;6.35;;
60054;SDS011;45930;53.514;55.904;2022-12-20T02:35:43;13.55;;;6.50;;
60054;SDS011;45930;53.514;55.904;2022-12-20T02:36:44;11.77;;;6.90;;
60054;SDS011;45930;53.514;55.904;2022-12-20T02:37:52;13.33;;;6.87;;
60054;SDS011;45930;53.514;55.904;2022-12-20T02:38:55;12.35;;;7.13;;
60054;SDS011;45930;53.514;55.904;2022-12-20T02:39:56;11.63;;;6.83;;
60054;SDS011;45930;53.514;55.904;2022-12-20T02:42:22;12.30;;;6.95;;
60054;SDS011;45930;53.514;55.904;2022-12-20T02:43:26;9.98;;;6.18;;
60054;SDS011;45930;53.514;55.904;2022-12-20T02:44:49;11.57;;;6.13;;
60054;SDS011;45930;53.514;55.904;2022-12-20T02:46:14;11.95;;;6.30;;
60054;SDS011;45930;53.514;55.904;2022-12-20T02:47:20;12.75;;;7.07;;
60054;SDS011;45930;53.514;55.904;2022-12-20T02:48:24;14.30;;;6.97;;
60054;SDS011;45930;53.514;55.904;2022-12-20T02:49:29;12.18;;;6.50;;
60054;SDS011;45930;53.514;55.904;2022-12-20T02:50:35;11.85;;;6.15;;
60054;SDS011;45930;53.514;55.904;2022-12-20T02:51:46;14.10;;;6.68;;
60054;SDS011;45930;53.514;55.904;2022-12-20T02:52:51;10.73;;;6.60;;
60054;SDS011;45930;53.514;55.904;2022-12-20T02:53:52;13.55;;;7.22;;
60054;SDS011;45930;53.514;55.904;2022-12-20T02:54:53;10.15;;;6.53;;
60054;SDS011;45930;53.514;55.904;2022-12-20T02:56:05;11.60;;;6.95;;
60054;SDS011;45930;53.514;55.904;2022-12-20T02:58:37;11.10;;;6.43;;
60054;SDS011;45930;53.514;55.904;2022-12-20T02:59:49;11.90;;;7.25;;
60054;SDS011;45930;53.514;55.904;2022-12-20T03:01:00;13.50;;;6.65;;
60054;SDS011;45930;53.514;55.904;2022-12-20T03:02:05;11.15;;;7.05;;
60054;SDS011;45930;53.514;55.904;2022-12-20T03:03:08;10.35;;;6.90;;
60054;SDS011;45930;53.514;55.904;2022-12-20T03:04:28;12.70;;;7.40;;
60054;SDS011;45930;53.514;55.904;2022-12-20T03:05:31;11.35;;;6.68;;
60054;SDS011;45930;53.514;55.904;2022-12-20T03:06:35;11.00;;;7.28;;
60054;SDS011;45930;53.514;55.904;2022-12-20T03:07:36;14.03;;;6.97;;
60054;SDS011;45930;53.514;55.904;2022-12-20T03:08:37;13.63;;;7.37;;
60054;SDS011;45930;53.514;55.904;2022-12-20T03:09:39;14.67;;;7.30;;
60054;SDS011;45930;53.514;55.904;2022-12-20T03:10:42;14.55;;;7.18;;
60054;SDS011;45930;53.514;55.904;2022-12-20T03:11:43;13.32;;;6.95;;
60054;SDS011;45930;53.514;55.904;2022-12-20T03:12:44;14.83;;;7.50;;
60054;SDS011;45930;53.514;55.904;2022-12-20T03:13:45;12.45;;;7.25;;
60054;SDS011;45930;53.514;55.904;2022-12-20T03:14:45;12.53;;;7.43;;
60054;SDS011;45930;53.514;55.904;2022-12-20T03:15:46;14.77;;;7.43;;
60054;SDS011;45930;53.514;55.904;2022-12-20T03:16:47;13.80;;;7.13;;
60054;SDS011;45930;53.514;55.904;2022-12-20T03:17:48;12.50;;;6.57;;
60054;SDS011;45930;53.514;55.904;2022-12-20T03:18:48;13.67;;;7.43;;
60054;SDS011;45930;53.514;55.904;2022-12-20T03:19:49;13.03;;;6.97;;
60054;SDS011;45930;53.514;55.904;2022-12-20T03:20:50;12.13;;;7.30;;
60054;SDS011;45930;53.514;55.904;2022-12-20T03:21:50;12.60;;;6.77;;
60054;SDS011;45930;53.514;55.904;2022-12-20T03:22:51;13.77;;;6.73;;
60054;SDS011;45930;53.514;55.904;2022-12-20T03:23:52;13.93;;;7.17;;
60054;SDS011;45930;53.514;55.904;2022-12-20T03:24:53;12.90;;;7.90;;
60054;SDS011;45930;53.514;55.904;2022-12-20T03:25:53;12.23;;;6.63;;
60054;SDS011;45930;53.514;55.904;2022-12-20T03:26:54;13.67;;;7.27;;
60054;SDS011;45930;53.514;55.904;2022-12-20T03:27:55;13.13;;;7.03;;
60054;SDS011;45930;53.514;55.904;2022-12-20T03:28:56;11.70;;;7.23;;
60054;SDS011;45930;53.514;55.904;2022-12-20T03:29:56;14.67;;;7.40;;
60054;SDS011;45930;53.514;55.904;2022-12-20T03:30:57;13.23;;;8.17;;
60054;SDS011;45930;53.514;55.904;2022-12-20T03:31:58;11.57;;;6.70;;
60054;SDS011;45930;53.514;55.904;2022-12-20T03:32:58;16.37;;;7.93;;
60054;SDS011;45930;53.514;55.904;2022-12-20T03:33:59;12.30;;;7.23;;
60054;SDS011;45930;53.514;55.904;2022-12-20T03:35:00;14.17;;;6.97;;
60054;SDS011;45930;53.514;55.904;2022-12-20T03:36:01;14.47;;;8.20;;
60054;SDS011;45930;53.514;55.904;2022-12-20T03:37:01;10.60;;;7.77;;
60054;SDS011;45930;53.514;55.904;2022-12-20T03:38:02;13.63;;;8.25;;
60054;SDS011;45930;53.514;55.904;2022-12-20T03:39:03;13.23;;;6.80;;
60054;SDS011;45930;53.514;55.904;2022-12-20T03:40:04;13.63;;;7.75;;
60054;SDS011;45930;53.514;55.904;2022-12-20T03:41:06;12.48;;;7.22;;
60054;SDS011;45930;53.514;55.904;2022-12-20T03:42:06;14.20;;;7.60;;
60054;SDS011;45930;53.514;55.904;2022-12-20T03:43:07;13.30;;;7.67;;
60054;SDS011;45930;53.514;55.904;2022-12-20T03:44:08;12.13;;;6.40;;
60054;SDS011;45930;53.514;55.904;2022-12-20T03:45:09;12.37;;;7.23;;
60054;SDS011;45930;53.514;55.904;2022-12-20T03:46:10;13.48;;;7.63;;
60054;SDS011;45930;53.514;55.904;2022-12-20T03:47:11;13.87;;;7.10;;
60054;SDS011;45930;53.514;55.904;2022-12-20T03:48:11;12.20;;;7.50;;
60054;SDS011;45930;53.514;55.904;2022-12-20T03:49:12;13.80;;;7.63;;
60054;SDS011;45930;53.514;55.904;2022-12-20T03:50:13;17.17;;;8.60;;
60054;SDS011;45930;53.514;55.904;2022-12-20T03:51:14;12.15;;;6.65;;
60054;SDS011;45930;53.514;55.904;2022-12-20T03:52:15;14.67;;;8.07;;
60054;SDS011;45930;53.514;55.904;2022-12-20T03:53:16;13.13;;;7.23;;
60054;SDS011;45930;53.514;55.904;2022-12-20T03:54:16;15.47;;;8.47;;
60054;SDS011;45930;53.514;55.904;2022-12-20T03:55:17;12.30;;;7.53;;
60054;SDS011;45930;53.514;55.904;2022-12-20T03:56:18;12.57;;;7.50;;
60054;SDS011;45930;53.514;55.904;2022-12-20T03:57:18;12.17;;;7.70;;
60054;SDS011;45930;53.514;55.904;2022-12-20T03:58:19;15.03;;;8.33;;
60054;SDS011;45930;53.514;55.904;2022-12-20T03:59:20;14.33;;;8.40;;
60054;SDS011;45930;53.514;55.904;2022-12-20T04:00:21;13.23;;;8.57;;
60054;SDS011;45930;53.514;55.904;2022-12-20T04:01:22;13.07;;;7.27;;
60054;SDS011;45930;53.514;55.904;2022-12-20T04:02:26;14.25;;;7.78;;
60054;SDS011;45930;53.514;55.904;2022-12-20T04:03:26;13.77;;;7.00;;
60054;SDS011;45930;53.514;55.904;2022-12-20T04:04:27;16.27;;;8.83;;
60054;SDS011;45930;53.514;55.904;2022-12-20T04:05:28;13.43;;;7.93;;
60054;SDS011;45930;53.514;55.904;2022-12-20T04:06:29;17.23;;;9.20;;
60054;SDS011;45930;53.514;55.904;2022-12-20T04:07:29;13.37;;;7.87;;
60054;SDS011;45930;53.514;55.904;2022-12-20T04:08:30;13.90;;;7.70;;
60054;SDS011;45930;53.514;55.904;2022-12-20T04:09:31;16.73;;;8.43;;
60054;SDS011;45930;53.514;55.904;2022-12-20T04:10:31;15.23;;;8.60;;
60054;SDS011;45930;53.514;55.904;2022-12-20T04:11:52;12.60;;;7.70;;
60054;SDS011;45930;53.514;55.904;2022-12-20T04:12:53;15.70;;;9.70;;
60054;SDS011;45930;53.514;55.904;2022-12-20T04:13:53;14.90;;;8.77;;
60054;SDS011;45930;53.514;55.904;2022-12-20T04:14:54;14.83;;;8.37;;
60054;SDS011;45930;53.514;55.904;2022-12-20T04:15:55;16.80;;;9.50;;
60054;SDS011;45930;53.514;55.904;2022-12-20T04:16:56;13.93;;;8.17;;
60054;SDS011;45930;53.514;55.904;2022-12-20T04:17:56;13.07;;;8.50;;
60054;SDS011;45930;53.514;55.904;2022-12-20T04:18:57;13.83;;;8.00;;
60054;SDS011;45930;53.514;55.904;2022-12-20T04:19:58;16.37;;;8.47;;
60054;SDS011;45930;53.514;55.904;2022-12-20T04:21:21;15.38;;;8.02;;
60054;SDS011;45930;53.514;55.904;2022-12-20T04:22:27;14.23;;;8.43;;
60054;SDS011;45930;53.514;55.904;2022-12-20T04:23:28;16.87;;;9.00;;
60054;SDS011;45930;53.514;55.904;2022-12-20T04:24:29;15.63;;;9.00;;
60054;SDS011;45930;53.514;55.904;2022-12-20T04:25:30;16.00;;;9.23;;
60054;SDS011;45930;53.514;55.904;2022-12-20T04:26:30;11.90;;;7.57;;
60054;SDS011;45930;53.514;55.904;2022-12-20T04:27:31;17.33;;;7.83;;
60054;SDS011;45930;53.514;55.904;2022-12-20T04:28:32;25.33;;;8.57;;
60054;SDS011;45930;53.514;55.904;2022-12-20T04:29:33;16.27;;;8.77;;
60054;SDS011;45930;53.514;55.904;2022-12-20T04:30:34;14.20;;;8.77;;
60054;SDS011;45930;53.514;55.904;2022-12-20T04:31:35;19.60;;;8.67;;
60054;SDS011;45930;53.514;55.904;2022-12-20T04:32:35;16.07;;;8.63;;
60054;SDS011;45930;53.514;55.904;2022-12-20T04:33:37;13.70;;;7.88;;
60054;SDS011;45930;53.514;55.904;2022-12-20T04:34:38;15.73;;;8.27;;
60054;SDS011;45930;53.514;55.904;2022-12-20T04:35:38;14.43;;;8.37;;
60054;SDS011;45930;53.514;55.904;2022-12-20T04:36:39;15.40;;;8.50;;
60054;SDS011;45930;53.514;55.904;2022-12-20T04:37:40;18.27;;;8.90;;
60054;SDS011;45930;53.514;55.904;2022-12-20T04:38:40;13.73;;;7.93;;
60054;SDS011;45930;53.514;55.904;2022-12-20T04:39:41;13.73;;;9.47;;
60054;SDS011;45930;53.514;55.904;2022-12-20T04:40:42;15.73;;;8.80;;
60054;SDS011;45930;53.514;55.904;2022-12-20T04:41:43;16.77;;;8.73;;
60054;SDS011;45930;53.514;55.904;2022-12-20T04:42:43;13.93;;;7.80;;
60054;SDS011;45930;53.514;55.904;2022-12-20T04:43:44;15.93;;;8.33;;
60054;SDS011;45930;53.514;55.904;2022-12-20T04:44:45;14.13;;;7.97;;
60054;SDS011;45930;53.514;55.904;2022-12-20T04:45:46;16.47;;;9.20;;
60054;SDS011;45930;53.514;55.904;2022-12-20T04:46:49;17.90;;;9.20;;
60054;SDS011;45930;53.514;55.904;2022-12-20T04:47:49;16.17;;;8.87;;
60054;SDS011;45930;53.514;55.904;2022-12-20T04:48:53;17.92;;;10.07;;
60054;SDS011;45930;53.514;55.904;2022-12-20T04:49:54;16.57;;;9.27;;
60054;SDS011;45930;53.514;55.904;2022-12-20T04:50:55;16.97;;;9.60;;
60054;SDS011;45930;53.514;55.904;2022-12-20T04:51:56;15.30;;;9.23;;
60054;SDS011;45930;53.514;55.904;2022-12-20T04:53:16;15.30;;;8.40;;
60054;SDS011;45930;53.514;55.904;2022-12-20T04:54:35;12.93;;;8.13;;
60054;SDS011;45930;53.514;55.904;2022-12-20T04:55:37;15.23;;;8.90;;
60054;SDS011;45930;53.514;55.904;2022-12-20T04:56:38;14.88;;;8.10;;
60054;SDS011;45930;53.514;55.904;2022-12-20T04:57:39;14.73;;;9.33;;
60054;SDS011;45930;53.514;55.904;2022-12-20T04:58:39;15.43;;;8.90;;
60054;SDS011;45930;53.514;55.904;2022-12-20T04:59:40;16.73;;;8.25;;
60054;SDS011;45930;53.514;55.904;2022-12-20T05:00:41;14.63;;;8.80;;
60054;SDS011;45930;53.514;55.904;2022-12-20T05:01:42;14.97;;;8.47;;
60054;SDS011;45930;53.514;55.904;2022-12-20T05:02:43;16.50;;;8.20;;
60054;SDS011;45930;53.514;55.904;2022-12-20T05:03:43;15.57;;;8.47;;
60054;SDS011;45930;53.514;55.904;2022-12-20T05:04:44;15.10;;;8.43;;
60054;SDS011;45930;53.514;55.904;2022-12-20T05:05:45;13.53;;;8.30;;
60054;SDS011;45930;53.514;55.904;2022-12-20T05:06:46;13.23;;;8.00;;
60054;SDS011;45930;53.514;55.904;2022-12-20T05:07:47;12.47;;;8.10;;
60054;SDS011;45930;53.514;55.904;2022-12-20T05:08:48;12.17;;;7.90;;
60054;SDS011;45930;53.514;55.904;2022-12-20T05:09:49;13.43;;;8.20;;
60054;SDS011;45930;53.514;55.904;2022-12-20T05:10:49;12.93;;;7.50;;
60054;SDS011;45930;53.514;55.904;2022-12-20T05:11:50;14.93;;;8.43;;
60054;SDS011;45930;53.514;55.904;2022-12-20T05:12:51;13.17;;;7.13;;
60054;SDS011;45930;53.514;55.904;2022-12-20T05:13:52;17.40;;;8.73;;
60054;SDS011;45930;53.514;55.904;2022-12-20T05:14:52;13.17;;;8.40;;
60054;SDS011;45930;53.514;55.904;2022-12-20T05:15:54;15.20;;;8.73;;
60054;SDS011;45930;53.514;55.904;2022-12-20T05:16:55;13.98;;;8.27;;
60054;SDS011;45930;53.514;55.904;2022-12-20T05:17:56;15.50;;;8.10;;
60054;SDS011;45930;53.514;55.904;2022-12-20T05:18:59;12.43;;;7.72;;
60054;SDS011;45930;53.514;55.904;2022-12-20T05:20:00;12.23;;;7.35;;
60054;SDS011;45930;53.514;55.904;2022-12-20T05:21:01;12.53;;;8.00;;
60054;SDS011;45930;53.514;55.904;2022-12-20T05:22:21;14.27;;;8.57;;
60054;SDS011;45930;53.514;55.904;2022-12-20T05:23:40;13.80;;;7.40;;
60054;SDS011;45930;53.514;55.904;2022-12-20T05:25:00;13.73;;;7.90;;
60054;SDS011;45930;53.514;55.904;2022-12-20T05:26:19;15.00;;;7.53;;
60054;SDS011;45930;53.514;55.904;2022-12-20T05:27:21;14.55;;;7.45;;
60054;SDS011;45930;53.514;55.904;2022-12-20T05:28:22;13.80;;;7.23;;
60054;SDS011;45930;53.514;55.904;2022-12-20T05:29:23;14.33;;;7.17;;
60054;SDS011;45930;53.514;55.904;2022-12-20T05:30:24;15.77;;;8.13;;
60054;SDS011;45930;53.514;55.904;2022-12-20T05:31:25;12.23;;;8.48;;
60054;SDS011;45930;53.514;55.904;2022-12-20T05:32:25;13.03;;;7.83;;
60054;SDS011;45930;53.514;55.904;2022-12-20T05:33:26;13.03;;;7.43;;
60054;SDS011;45930;53.514;55.904;2022-12-20T05:34:27;16.25;;;7.93;;
60054;SDS011;45930;53.514;55.904;2022-12-20T05:35:28;15.83;;;8.50;;
60054;SDS011;45930;53.514;55.904;2022-12-20T05:36:29;15.57;;;8.13;;
60054;SDS011;45930;53.514;55.904;2022-12-20T05:37:30;14.73;;;8.13;;
60054;SDS011;45930;53.514;55.904;2022-12-20T05:38:30;14.87;;;8.10;;
60054;SDS011;45930;53.514;55.904;2022-12-20T05:39:31;15.33;;;8.53;;
60054;SDS011;45930;53.514;55.904;2022-12-20T05:40:33;12.65;;;7.18;;
60054;SDS011;45930;53.514;55.904;2022-12-20T05:41:34;14.20;;;8.48;;
60054;SDS011;45930;53.514;55.904;2022-12-20T05:42:35;12.73;;;7.93;;
60054;SDS011;45930;53.514;55.904;2022-12-20T05:43:36;15.20;;;8.20;;
60054;SDS011;45930;53.514;55.904;2022-12-20T05:44:37;14.27;;;8.13;;
60054;SDS011;45930;53.514;55.904;2022-12-20T05:45:37;13.27;;;8.40;;
60054;SDS011;45930;53.514;55.904;2022-12-20T05:46:38;15.87;;;7.80;;
60054;SDS011;45930;53.514;55.904;2022-12-20T05:47:39;10.30;;;6.97;;
60054;SDS011;45930;53.514;55.904;2022-12-20T05:48:40;15.03;;;8.07;;
60054;SDS011;45930;53.514;55.904;2022-12-20T05:49:40;17.10;;;8.17;;
60054;SDS011;45930;53.514;55.904;2022-12-20T05:50:41;11.57;;;7.77;;
60054;SDS011;45930;53.514;55.904;2022-12-20T05:51:43;13.43;;;8.13;;
60054;SDS011;45930;53.514;55.904;2022-12-20T05:52:44;16.40;;;8.40;;
60054;SDS011;45930;53.514;55.904;2022-12-20T05:53:45;16.10;;;8.20;;
60054;SDS011;45930;53.514;55.904;2022-12-20T05:54:46;14.90;;;7.83;;
60054;SDS011;45930;53.514;55.904;2022-12-20T05:55:47;15.87;;;7.97;;
60054;SDS011;45930;53.514;55.904;2022-12-20T05:56:50;14.00;;;7.97;;
60054;SDS011;45930;53.514;55.904;2022-12-20T05:57:51;16.33;;;8.73;;
60054;SDS011;45930;53.514;55.904;2022-12-20T05:58:52;15.77;;;9.30;;
60054;SDS011;45930;53.514;55.904;2022-12-20T05:59:52;13.57;;;7.97;;
60054;SDS011;45930;53.514;55.904;2022-12-20T06:00:54;13.98;;;8.07;;
60054;SDS011;45930;53.514;55.904;2022-12-20T06:01:55;15.05;;;9.68;;
60054;SDS011;45930;53.514;55.904;2022-12-20T06:02:56;11.80;;;8.10;;
60054;SDS011;45930;53.514;55.904;2022-12-20T06:03:57;15.77;;;8.63;;
60054;SDS011;45930;53.514;55.904;2022-12-20T06:04:57;16.40;;;9.03;;
60054;SDS011;45930;53.514;55.904;2022-12-20T06:05:58;14.30;;;8.00;;
60054;SDS011;45930;53.514;55.904;2022-12-20T06:06:59;14.30;;;7.63;;
60054;SDS011;45930;53.514;55.904;2022-12-20T06:08:00;17.03;;;8.20;;
60054;SDS011;45930;53.514;55.904;2022-12-20T06:09:00;17.17;;;9.27;;
60054;SDS011;45930;53.514;55.904;2022-12-20T06:10:01;14.17;;;7.80;;
60054;SDS011;45930;53.514;55.904;2022-12-20T06:11:03;16.05;;;8.57;;
60054;SDS011;45930;53.514;55.904;2022-12-20T06:12:04;14.13;;;8.30;;
60054;SDS011;45930;53.514;55.904;2022-12-20T06:13:05;13.77;;;8.00;;
60054;SDS011;45930;53.514;55.904;2022-12-20T06:14:06;15.38;;;7.70;;
60054;SDS011;45930;53.514;55.904;2022-12-20T06:15:07;16.73;;;8.83;;
60054;SDS011;45930;53.514;55.904;2022-12-20T06:16:08;14.93;;;8.68;;
60054;SDS011;45930;53.514;55.904;2022-12-20T06:17:09;14.50;;;7.93;;
60054;SDS011;45930;53.514;55.904;2022-12-20T06:18:11;13.13;;;7.63;;
60054;SDS011;45930;53.514;55.904;2022-12-20T06:19:12;12.73;;;8.97;;
60054;SDS011;45930;53.514;55.904;2022-12-20T06:20:13;13.00;;;8.05;;
60054;SDS011;45930;53.514;55.904;2022-12-20T06:21:14;15.13;;;8.53;;
60054;SDS011;45930;53.514;55.904;2022-12-20T06:22:15;15.25;;;8.10;;
60054;SDS011;45930;53.514;55.904;2022-12-20T06:23:16;15.80;;;8.23;;
60054;SDS011;45930;53.514;55.904;2022-12-20T06:24:17;15.10;;;7.22;;
60054;SDS011;45930;53.514;55.904;2022-12-20T06:25:18;15.50;;;8.30;;
60054;SDS011;45930;53.514;55.904;2022-12-20T06:26:22;13.90;;;8.65;;
60054;SDS011;45930;53.514;55.904;2022-12-20T06:27:23;16.90;;;8.90;;
60054;SDS011;45930;53.514;55.904;2022-12-20T06:28:23;17.33;;;8.50;;
60054;SDS011;45930;53.514;55.904;2022-12-20T06:29:24;14.80;;;8.50;;